Terminal Aerodrome Forecast
Issued by NWS Goodland, KS

Home | Current Version | Previous Version | Text Only | Print | Product List | Glossary On
Versions: 1 2 3 4 5 6 7 8 9 10 11 12 13 14 15 16 17
000
FTUS43 KGLD 221700
TAFGLD
TAF
KGLD 221733Z 2218/2318 10008KT P6SM SKC
     FM222200 11011KT P6SM FEW070 SCT150
     FM230200 09008KT P6SM SCT150
     FM231000 VRB05KT 6SM BR VCFG FEW010
     FM231600 14012KT P6SM FEW250=

USA.gov is the U.S. government's official web portal to all federal, state and local government web resources and services.